Time;durP1;ratioP1;P1;durP2;ratioP2;P2;SDS_P1;SDS_P2;PMS_P1;PMS_P2;Temp;Humidity;BMP_temperature;BMP_pressure;BME280_temperature;BME280_humidity;BME280_pressure;Samples;Min_cycle;Max_cycle;Signal;HPM_P1;HPM_P2
2023/06/02 00:02:29;;;;;;;0.10;0.10;;;;;;;;;;6231065;23;20022;-79
2023/06/02 00:04:59;;;;;;;0.10;0.10;;;;;;;;;;6204718;23;20039;-79
2023/06/02 00:07:29;;;;;;;1.33;1.23;;;;;;;;;;6203835;23;20020;-79
2023/06/02 00:09:58;;;;;;;0.77;0.77;;;;;;;;;;6204446;23;20095;-79
2023/06/02 00:12:25;;;;;;;0.10;0.10;;;;;;;;;;6204424;23;20048;-79
2023/06/02 00:14:52;;;;;;;0.10;0.10;;;;;;;;;;6203806;23;20020;-78
2023/06/02 00:17:19;;;;;;;0.52;0.52;;;;;;;;;;6231035;23;20026;-79
2023/06/02 00:19:47;;;;;;;0.10;0.10;;;;;;;;;;6230900;23;20031;-79
2023/06/02 00:22:17;;;;;;;1.25;1.23;;;;;;;;;;6204085;23;20324;-79
2023/06/02 00:24:44;;;;;;;2.67;1.60;;;;;;;;;;6204287;23;20469;-79
2023/06/02 00:27:10;;;;;;;0.10;0.10;;;;;;;;;;6229895;23;20069;-79
2023/06/02 00:29:36;;;;;;;0.10;0.10;;;;;;;;;;6230661;23;20020;-79
2023/06/02 00:32:03;;;;;;;0.10;0.10;;;;;;;;;;6231262;23;20059;-79
2023/06/02 00:34:29;;;;;;;0.10;0.10;;;;;;;;;;6231365;23;20023;-79
2023/06/02 00:36:55;;;;;;;0.10;0.10;;;;;;;;;;6230259;23;20066;-79
2023/06/02 00:39:21;;;;;;;0.10;0.10;;;;;;;;;;6204066;23;20044;-79
2023/06/02 00:41:48;;;;;;;0.10;0.10;;;;;;;;;;6203686;23;20023;-78
2023/06/02 00:44:15;;;;;;;0.45;0.32;;;;;;;;;;6203691;23;20085;-79
2023/06/02 00:46:41;;;;;;;0.10;0.10;;;;;;;;;;6230450;23;20020;-79
2023/06/02 00:49:07;;;;;;;0.10;0.10;;;;;;;;;;6230763;23;20012;-79
2023/06/02 00:51:33;;;;;;;0.10;0.10;;;;;;;;;;6230337;23;20066;-79
2023/06/02 00:53:59;;;;;;;0.10;0.10;;;;;;;;;;6203729;23;20518;-79
2023/06/02 00:56:25;;;;;;;0.10;0.10;;;;;;;;;;6203792;23;20028;-78
2023/06/02 00:58:53;;;;;;;1.45;0.75;;;;;;;;;;6203432;23;20340;-79
2023/06/02 01:01:19;;;;;;;0.10;0.10;;;;;;;;;;6203762;23;20021;-79
2023/06/02 01:03:47;;;;;;;0.10;0.10;;;;;;;;;;6202799;23;20024;-79
2023/06/02 01:06:20;;;;;;;0.10;0.10;;;;;;;;;;6203957;23;20467;-79
2023/06/02 01:08:46;;;;;;;0.00;0.00;;;;;;;;;;6203910;23;20078;-78
2023/06/02 01:11:12;;;;;;;0.10;0.10;;;;;;;;;;6202895;23;20024;-80
2023/06/02 01:13:38;;;;;;;0.10;0.10;;;;;;;;;;6204303;23;20054;-79
2023/06/02 01:16:05;;;;;;;0.10;0.10;;;;;;;;;;6203822;23;20475;-78
2023/06/02 01:18:35;;;;;;;0.10;0.10;;;;;;;;;;6203046;23;20028;-79
2023/06/02 01:21:01;;;;;;;0.10;0.10;;;;;;;;;;6204233;23;20098;-78
2023/06/02 01:23:32;;;;;;;0.20;0.20;;;;;;;;;;6203333;23;20024;-78
2023/06/02 01:25:58;;;;;;;0.20;0.20;;;;;;;;;;6230232;23;20591;-78
2023/06/02 01:28:26;;;;;;;0.10;0.10;;;;;;;;;;6203371;23;20035;-79
2023/06/02 01:30:53;;;;;;;0.10;0.10;;;;;;;;;;6176841;23;20103;-78
2023/06/02 01:33:19;;;;;;;0.10;0.10;;;;;;;;;;6203130;23;20024;-79
2023/06/02 01:35:48;;;;;;;0.10;0.10;;;;;;;;;;6231128;23;20078;-78
2023/06/02 01:38:16;;;;;;;0.10;0.10;;;;;;;;;;6203323;23;20035;-79
2023/06/02 01:40:42;;;;;;;0.10;0.10;;;;;;;;;;6204226;23;20325;-79
2023/06/02 01:43:09;;;;;;;0.10;0.10;;;;;;;;;;6178404;23;20016;-79
2023/06/02 01:45:36;;;;;;;0.10;0.10;;;;;;;;;;6203234;23;20020;-78
2023/06/02 01:48:03;;;;;;;0.10;0.10;;;;;;;;;;6203017;23;20102;-78
2023/06/02 01:50:29;;;;;;;0.10;0.10;;;;;;;;;;6203479;23;20142;-78
2023/06/02 01:52:56;;;;;;;0.10;0.10;;;;;;;;;;6203228;23;20026;-78
2023/06/02 01:55:22;;;;;;;0.10;0.10;;;;;;;;;;6202603;23;20093;-78
2023/06/02 01:57:48;;;;;;;0.15;0.15;;;;;;;;;;6202582;23;20352;-79
2023/06/02 02:00:14;;;;;;;0.10;0.10;;;;;;;;;;6203828;23;20024;-79
2023/06/02 02:02:40;;;;;;;0.10;0.10;;;;;;;;;;6202868;23;20027;-78
2023/06/02 02:05:06;;;;;;;0.10;0.10;;;;;;;;;;6177342;23;20150;-79
2023/06/02 02:07:34;;;;;;;0.10;0.10;;;;;;;;;;6203307;23;20157;-78
2023/06/02 02:10:00;;;;;;;0.10;0.10;;;;;;;;;;6202852;23;20419;-77
2023/06/02 02:12:26;;;;;;;0.30;0.30;;;;;;;;;;6202982;23;20496;-78
2023/06/02 02:14:53;;;;;;;0.10;0.10;;;;;;;;;;6176675;23;20031;-78
2023/06/02 02:17:25;;;;;;;0.10;0.10;;;;;;;;;;6229869;23;20463;-78
2023/06/02 02:19:51;;;;;;;0.90;0.90;;;;;;;;;;6203085;23;20426;-78
2023/06/02 02:22:17;;;;;;;0.10;0.10;;;;;;;;;;6202986;23;20454;-79
2023/06/02 02:24:43;;;;;;;0.10;0.10;;;;;;;;;;6203382;23;20372;-78
2023/06/02 02:27:10;;;;;;;0.10;0.10;;;;;;;;;;6229793;23;20016;-79
2023/06/02 02:29:36;;;;;;;0.10;0.10;;;;;;;;;;6203051;23;20020;-78
2023/06/02 02:32:02;;;;;;;0.10;0.10;;;;;;;;;;6203002;23;20024;-79
2023/06/02 02:34:29;;;;;;;0.10;0.10;;;;;;;;;;6203058;23;20070;-78
2023/06/02 02:37:01;;;;;;;0.10;0.10;;;;;;;;;;6203290;23;20032;-78
2023/06/02 02:39:31;;;;;;;0.30;0.30;;;;;;;;;;6202506;23;20021;-78
2023/06/02 02:41:57;;;;;;;0.10;0.10;;;;;;;;;;6202825;23;20020;-79
2023/06/02 02:44:23;;;;;;;0.10;0.10;;;;;;;;;;6202812;23;20020;-79
2023/06/02 02:46:49;;;;;;;0.35;0.35;;;;;;;;;;6201829;23;20102;-79
2023/06/02 02:49:15;;;;;;;0.10;0.10;;;;;;;;;;6203129;23;20020;-79
2023/06/02 02:51:41;;;;;;;0.10;0.10;;;;;;;;;;6229592;23;20020;-79
2023/06/02 02:54:07;;;;;;;0.10;0.10;;;;;;;;;;6203402;23;20015;-80
2023/06/02 02:56:34;;;;;;;0.10;0.10;;;;;;;;;;6203085;23;20020;-79
2023/06/02 02:59:00;;;;;;;0.10;0.10;;;;;;;;;;6203317;23;20091;-79
2023/06/02 03:01:27;;;;;;;0.10;0.10;;;;;;;;;;6201725;23;20316;-79
2023/06/02 03:03:54;;;;;;;0.10;0.10;;;;;;;;;;6203118;23;20020;-79
2023/06/02 03:06:21;;;;;;;0.10;0.10;;;;;;;;;;6203260;23;20396;-79
2023/06/02 03:08:47;;;;;;;0.10;0.10;;;;;;;;;;6204031;23;20023;-79
2023/06/02 03:11:14;;;;;;;0.10;0.10;;;;;;;;;;6231348;23;20113;-79
2023/06/02 03:13:40;;;;;;;0.10;0.10;;;;;;;;;;6204652;23;20031;-79
2023/06/02 03:16:06;;;;;;;0.10;0.10;;;;;;;;;;6204625;23;20514;-79
2023/06/02 03:18:32;;;;;;;0.10;0.10;;;;;;;;;;6232259;23;20024;-79
2023/06/02 03:20:58;;;;;;;0.10;0.10;;;;;;;;;;6232571;23;20016;-79
2023/06/02 03:23:31;;;;;;;0.10;0.10;;;;;;;;;;6203482;23;20020;-79
2023/06/02 03:26:00;;;;;;;0.10;0.10;;;;;;;;;;6204346;23;20031;-79
2023/06/02 03:28:26;;;;;;;0.10;0.10;;;;;;;;;;6204464;23;20134;-79
2023/06/02 03:30:52;;;;;;;0.10;0.10;;;;;;;;;;6203541;23;20024;-79
2023/06/02 03:33:18;;;;;;;0.10;0.10;;;;;;;;;;6204506;23;20401;-78
2023/06/02 03:35:44;;;;;;;0.10;0.10;;;;;;;;;;6231155;23;20455;-79
2023/06/02 03:38:10;;;;;;;0.10;0.10;;;;;;;;;;6231180;23;20019;-79
2023/06/02 03:40:36;;;;;;;0.10;0.10;;;;;;;;;;6204471;23;20042;-78
2023/06/02 03:43:02;;;;;;;0.10;0.10;;;;;;;;;;6203122;23;20113;-80
2023/06/02 03:45:28;;;;;;;0.10;0.10;;;;;;;;;;6230858;23;20451;-80
2023/06/02 03:47:54;;;;;;;0.10;0.10;;;;;;;;;;6230307;23;20467;-79
2023/06/02 03:50:21;;;;;;;0.10;0.10;;;;;;;;;;6230865;23;20539;-79
2023/06/02 03:52:47;;;;;;;0.10;0.10;;;;;;;;;;6203683;23;20151;-79
2023/06/02 03:55:13;;;;;;;0.10;0.10;;;;;;;;;;6204209;23;20016;-79
2023/06/02 03:57:39;;;;;;;0.25;0.25;;;;;;;;;;6203859;23;20016;-78
2023/06/02 04:00:10;;;;;;;0.68;0.68;;;;;;;;;;6203942;23;20016;-77
2023/06/02 04:02:36;;;;;;;0.47;0.47;;;;;;;;;;6204265;23;20032;-81
2023/06/02 04:05:03;;;;;;;0.10;0.10;;;;;;;;;;6204755;23;20115;-81
2023/06/02 04:07:29;;;;;;;0.10;0.10;;;;;;;;;;6204549;23;20546;-81
2023/06/02 04:09:55;;;;;;;0.10;0.10;;;;;;;;;;6178198;23;20074;-80
2023/06/02 04:12:21;;;;;;;0.10;0.10;;;;;;;;;;6203834;23;20016;-79
2023/06/02 04:14:47;;;;;;;0.10;0.10;;;;;;;;;;6204089;23;20357;-78
2023/06/02 04:17:13;;;;;;;0.10;0.10;;;;;;;;;;6203965;23;20020;-78
2023/06/02 04:19:39;;;;;;;0.10;0.10;;;;;;;;;;6204286;23;20020;-78
2023/06/02 04:22:05;;;;;;;0.20;0.20;;;;;;;;;;6204318;23;20031;-78
2023/06/02 04:24:31;;;;;;;0.10;0.10;;;;;;;;;;6204264;23;20031;-79
2023/06/02 04:26:58;;;;;;;0.10;0.10;;;;;;;;;;6204150;23;20023;-78
2023/06/02 04:29:24;;;;;;;0.10;0.10;;;;;;;;;;6204497;23;20274;-78
2023/06/02 04:31:50;;;;;;;0.10;0.10;;;;;;;;;;6179542;23;20089;-78
2023/06/02 04:34:16;;;;;;;0.10;0.10;;;;;;;;;;6204336;23;20444;-78
2023/06/02 04:36:42;;;;;;;0.10;0.10;;;;;;;;;;6229365;23;20099;-77
2023/06/02 04:39:09;;;;;;;0.10;0.10;;;;;;;;;;6203917;23;20351;-78
2023/06/02 04:41:36;;;;;;;0.10;0.10;;;;;;;;;;6203004;23;20019;-78
2023/06/02 04:44:02;;;;;;;0.32;0.32;;;;;;;;;;6230427;23;20062;-78
2023/06/02 04:46:28;;;;;;;0.20;0.20;;;;;;;;;;6178823;23;20451;-78
2023/06/02 04:48:55;;;;;;;0.13;0.13;;;;;;;;;;6203660;23;20030;-78
2023/06/02 04:51:27;;;;;;;0.10;0.10;;;;;;;;;;6231003;23;20522;-78
2023/06/02 04:53:53;;;;;;;0.10;0.10;;;;;;;;;;6203836;23;20023;-77
2023/06/02 04:56:20;;;;;;;0.10;0.10;;;;;;;;;;6230218;23;20031;-78
2023/06/02 04:58:46;;;;;;;0.10;0.10;;;;;;;;;;6230326;23;20526;-77
2023/06/02 05:01:12;;;;;;;0.10;0.10;;;;;;;;;;6204645;23;20511;-77
2023/06/02 05:03:40;;;;;;;0.10;0.10;;;;;;;;;;6202826;23;20494;-77
2023/06/02 05:06:06;;;;;;;0.10;0.10;;;;;;;;;;6203777;23;20027;-78
2023/06/02 05:08:32;;;;;;;0.40;0.40;;;;;;;;;;6203361;23;20028;-78
2023/06/02 05:10:58;;;;;;;0.10;0.10;;;;;;;;;;6202653;23;20471;-77
2023/06/02 05:13:24;;;;;;;0.10;0.10;;;;;;;;;;6229475;23;20030;-78
2023/06/02 05:15:50;;;;;;;0.82;0.82;;;;;;;;;;6203686;23;20098;-77
2023/06/02 05:18:17;;;;;;;0.10;0.10;;;;;;;;;;6203642;23;20337;-78
2023/06/02 05:20:44;;;;;;;0.10;0.10;;;;;;;;;;6230310;23;20378;-78
2023/06/02 05:23:10;;;;;;;0.10;0.10;;;;;;;;;;6202470;23;20518;-78
2023/06/02 05:25:36;;;;;;;0.10;0.10;;;;;;;;;;6203814;23;20091;-78
2023/06/02 05:28:02;;;;;;;0.10;0.10;;;;;;;;;;6203380;23;20051;-78
2023/06/02 05:30:28;;;;;;;0.10;0.10;;;;;;;;;;6202985;23;20023;-78
2023/06/02 05:32:54;;;;;;;0.30;0.30;;;;;;;;;;6229200;23;20024;-78
2023/06/02 05:35:20;;;;;;;0.10;0.10;;;;;;;;;;6230511;23;20048;-79
2023/06/02 05:37:46;;;;;;;1.23;1.13;;;;;;;;;;6203618;23;20035;-78
2023/06/02 05:40:12;;;;;;;0.10;0.10;;;;;;;;;;6203424;23;20028;-78
2023/06/02 05:42:38;;;;;;;0.10;0.10;;;;;;;;;;6229686;23;20015;-78
2023/06/02 05:45:05;;;;;;;0.10;0.10;;;;;;;;;;6230320;23;20031;-78
2023/06/02 05:47:32;;;;;;;0.10;0.10;;;;;;;;;;6203822;23;20721;-79
2023/06/02 05:49:58;;;;;;;0.10;0.10;;;;;;;;;;6203096;23;20065;-78
2023/06/02 05:52:24;;;;;;;0.10;0.10;;;;;;;;;;6202546;23;20083;-78
2023/06/02 05:54:50;;;;;;;1.75;1.65;;;;;;;;;;6230628;23;20069;-78
2023/06/02 05:57:19;;;;;;;0.10;0.10;;;;;;;;;;6203761;23;20141;-78
2023/06/02 05:59:46;;;;;;;0.10;0.10;;;;;;;;;;6203580;23;20024;-78
2023/06/02 06:02:12;;;;;;;0.10;0.10;;;;;;;;;;6203310;23;20020;-78
2023/06/02 06:04:38;;;;;;;1.50;1.25;;;;;;;;;;6203667;23;20031;-78
2023/06/02 06:07:05;;;;;;;0.10;0.10;;;;;;;;;;6203033;23;20051;-78
2023/06/02 06:09:31;;;;;;;0.10;0.10;;;;;;;;;;6203759;23;20020;-78
2023/06/02 06:11:57;;;;;;;0.10;0.10;;;;;;;;;;6203716;23;20016;-79
2023/06/02 06:14:23;;;;;;;0.35;0.35;;;;;;;;;;6202497;23;20146;-78
2023/06/02 06:16:49;;;;;;;0.17;0.17;;;;;;;;;;6230513;23;20051;-78
2023/06/02 06:19:15;;;;;;;0.10;0.10;;;;;;;;;;6203384;23;20027;-78
2023/06/02 06:21:41;;;;;;;0.10;0.10;;;;;;;;;;6202866;23;20340;-78
2023/06/02 06:24:07;;;;;;;0.10;0.10;;;;;;;;;;6230096;23;20565;-79
2023/06/02 06:26:34;;;;;;;0.10;0.10;;;;;;;;;;6230231;23;20020;-79
2023/06/02 06:29:00;;;;;;;0.10;0.10;;;;;;;;;;6229437;23;20051;-78
2023/06/02 06:31:26;;;;;;;0.10;0.10;;;;;;;;;;6203057;23;20087;-79
2023/06/02 06:33:52;;;;;;;0.25;0.25;;;;;;;;;;6230430;23;20127;-78
2023/06/02 06:36:18;;;;;;;1.85;1.55;;;;;;;;;;6229176;23;20114;-78
2023/06/02 06:38:44;;;;;;;0.10;0.10;;;;;;;;;;6229041;23;20028;-79
2023/06/02 06:41:10;;;;;;;0.10;0.10;;;;;;;;;;6203671;23;20020;-78
2023/06/02 06:43:37;;;;;;;0.10;0.10;;;;;;;;;;6203575;23;20027;-78
2023/06/02 06:46:03;;;;;;;0.10;0.10;;;;;;;;;;6232552;23;20028;-79
2023/06/02 06:48:29;;;;;;;0.68;0.57;;;;;;;;;;6204905;23;20024;-78
2023/06/02 06:50:55;;;;;;;0.10;0.10;;;;;;;;;;6205649;23;20024;-78
2023/06/02 06:53:21;;;;;;;0.10;0.10;;;;;;;;;;6205294;23;20044;-78
2023/06/02 06:55:48;;;;;;;2.05;1.05;;;;;;;;;;6231941;23;20046;-78
2023/06/02 06:58:14;;;;;;;0.10;0.10;;;;;;;;;;6205659;23;20302;-78
2023/06/02 07:00:40;;;;;;;0.10;0.10;;;;;;;;;;6232376;23;20027;-78
2023/06/02 07:03:06;;;;;;;0.40;0.40;;;;;;;;;;6204849;23;20486;-78
2023/06/02 07:05:32;;;;;;;0.00;0.00;;;;;;;;;;6205245;23;20027;-78
2023/06/02 07:07:58;;;;;;;;;;;;;;;;;;6180223;23;20024;-79
2023/06/02 07:10:24;;;;;;;;;;;;;;;;;;6205554;23;20010;-78
2023/06/02 07:12:50;;;;;;;;;;;;;;;;;;6205684;23;19922;-78
2023/06/02 07:15:16;;;;;;;;;;;;;;;;;;6205615;23;19923;-78
2023/06/02 07:17:42;;;;;;;;;;;;;;;;;;6204211;23;19915;-78
2023/06/02 07:20:07;;;;;;;;;;;;;;;;;;6204645;23;19995;-78
2023/06/02 07:22:33;;;;;;;;;;;;;;;;;;6204854;23;19930;-78
2023/06/02 07:25:00;;;;;;;;;;;;;;;;;;6205323;23;20327;-79
2023/06/02 07:27:26;;;;;;;;;;;;;;;;;;6205551;23;20322;-78
2023/06/02 07:29:52;;;;;;;;;;;;;;;;;;6204472;23;19915;-78
2023/06/02 07:32:18;;;;;;;;;;;;;;;;;;6204621;23;19925;-79
2023/06/02 07:34:44;;;;;;;;;;;;;;;;;;6205156;23;19929;-79
2023/06/02 07:37:10;;;;;;;;;;;;;;;;;;6205205;23;20410;-79
2023/06/02 07:39:36;;;;;;;;;;;;;;;;;;6231015;23;19915;-79
2023/06/02 07:42:02;;;;;;;;;;;;;;;;;;6204717;23;19920;-81
2023/06/02 07:44:28;;;;;;;;;;;;;;;;;;6205489;23;19947;-79
2023/06/02 07:46:54;;;;;;;;;;;;;;;;;;6232417;23;20405;-79
2023/06/02 07:49:20;;;;;;;;;;;;;;;;;;6203536;23;19937;-80
2023/06/02 07:51:46;;;;;;;;;;;;;;;;;;6231547;23;20006;-79
2023/06/02 07:54:12;;;;;;;;;;;;;;;;;;6204731;23;20298;-78
2023/06/02 07:56:38;;;;;;;;;;;;;;;;;;6204934;23;20026;-78
2023/06/02 07:59:04;;;;;;;;;;;;;;;;;;6205123;23;19969;-78
2023/06/02 08:01:30;;;;;;;;;;;;;;;;;;6231260;23;20045;-79
2023/06/02 08:03:56;;;;;;;;;;;;;;;;;;6204306;23;20021;-81
2023/06/02 08:06:22;;;;;;;;;;;;;;;;;;6205040;23;20306;-80
2023/06/02 08:08:48;;;;;;;;;;;;;;;;;;6205143;23;19919;-78
2023/06/02 08:11:14;;;;;;;;;;;;;;;;;;6205576;23;19919;-79
2023/06/02 08:13:39;;;;;;;;;;;;;;;;;;6204497;23;19917;-77
2023/06/02 08:16:05;;;;;;;;;;;;;;;;;;6179131;23;20427;-77
2023/06/02 08:18:31;;;;;;;;;;;;;;;;;;6231655;23;19916;-78
2023/06/02 08:20:57;;;;;;;;;;;;;;;;;;6204295;23;19915;-77
2023/06/02 08:23:23;;;;;;;;;;;;;;;;;;6204311;23;19925;-78
2023/06/02 08:25:50;;;;;;;;;;;;;;;;;;6205057;23;20001;-77
2023/06/02 08:28:17;;;;;;;;;;;;;;;;;;6204925;23;19922;-80
2023/06/02 08:30:46;;;;;;;;;;;;;;;;;;6205046;23;19916;-80
2023/06/02 08:33:12;;;;;;;;;;;;;;;;;;6179474;23;19915;-79
2023/06/02 08:35:40;;;;;;;;;;;;;;;;;;6204348;23;19916;-80
2023/06/02 08:38:07;;;;;;;;;;;;;;;;;;6205033;23;19919;-78
2023/06/02 08:40:33;;;;;;;;;;;;;;;;;;6204378;23;20146;-78
2023/06/02 08:42:59;;;;;;;;;;;;;;;;;;6230986;23;19922;-78
2023/06/02 08:45:25;;;;;;;;;;;;;;;;;;6204851;23;19970;-78
2023/06/02 08:47:51;;;;;;;;;;;;;;;;;;6204393;23;19915;-78
2023/06/02 08:50:17;;;;;;;;;;;;;;;;;;6204298;23;19931;-82
2023/06/02 08:52:43;;;;;;;;;;;;;;;;;;6203882;23;20010;-77
2023/06/02 08:55:09;;;;;;;;;;;;;;;;;;6204512;23;19915;-78
2023/06/02 08:57:35;;;;;;;;;;;;;;;;;;6204164;23;19923;-78
2023/06/02 09:00:00;;;;;;;;;;;;;;;;;;6204176;23;20241;-78
2023/06/02 09:02:26;;;;;;;;;;;;;;;;;;6231286;23;19982;-78
2023/06/02 09:04:52;;;;;;;;;;;;;;;;;;6205144;23;19916;-78
2023/06/02 09:07:21;;;;;;;;;;;;;;;;;;6203696;23;19915;-79
2023/06/02 09:09:47;;;;;;;;;;;;;;;;;;6204409;23;19919;-79
2023/06/02 09:12:14;;;;;;;;;;;;;;;;;;6230464;23;20034;-78
2023/06/02 09:14:40;;;;;;;;;;;;;;;;;;6203979;23;19916;-78
2023/06/02 09:17:06;;;;;;;;;;;;;;;;;;6204363;23;19919;-78
2023/06/02 09:19:32;;;;;;;;;;;;;;;;;;6204579;23;19916;-79
2023/06/02 09:21:59;;;;;;;;;;;;;;;;;;6205681;23;19993;-84
2023/06/02 09:24:31;;;;;;;415.03;122.80;;;;;;;;;;6205203;23;20127;-87
2023/06/02 09:26:57;;;;;;;33.87;31.43;;;;;;;;;;6203524;23;20016;-79
2023/06/02 09:29:23;;;;;;;27.70;25.83;;;;;;;;;;6204043;23;20030;-84
2023/06/02 09:31:52;;;;;;;27.10;25.33;;;;;;;;;;6204175;23;20039;-81
2023/06/02 09:34:18;;;;;;;27.07;25.40;;;;;;;;;;6203659;23;20518;-81
2023/06/02 09:36:47;;;;;;;27.87;26.17;;;;;;;;;;6204145;23;20503;-80
2023/06/02 09:39:13;;;;;;;26.40;24.77;;;;;;;;;;6178284;23;20016;-80
2023/06/02 09:41:39;;;;;;;27.00;25.30;;;;;;;;;;6178762;23;20447;-79
2023/06/02 09:44:12;;;;;;;27.23;25.57;;;;;;;;;;6178205;23;20030;-79
2023/06/02 09:46:39;;;;;;;25.63;24.00;;;;;;;;;;6231334;23;20020;-79
2023/06/02 09:49:06;;;;;;;23.90;22.40;;;;;;;;;;6202122;23;20024;-79
2023/06/02 09:51:33;;;;;;;25.30;23.73;;;;;;;;;;6204015;23;20020;-80
2023/06/02 09:53:59;;;;;;;26.77;25.13;;;;;;;;;;6204569;23;20090;-80
2023/06/02 09:56:28;;;;;;;22.40;21.07;;;;;;;;;;6230749;23;20023;-80
2023/06/02 09:58:54;;;;;;;25.33;23.83;;;;;;;;;;6179020;23;20026;-80
2023/06/02 10:01:21;;;;;;;25.30;23.73;;;;;;;;;;6203402;23;20082;-80
2023/06/02 10:03:47;;;;;;;27.77;26.07;;;;;;;;;;6202468;23;20020;-79
2023/06/02 10:06:20;;;;;;;25.13;23.57;;;;;;;;;;6204124;23;20016;-80
2023/06/02 10:08:53;;;;;;;26.25;24.60;;;;;;;;;;6204337;23;20027;-79
2023/06/02 10:11:29;;;;;;;28.05;26.27;;;;;;;;;;6203889;23;20820;-80
2023/06/02 10:14:18;;;;;;;29.17;27.27;;;;;;;;;;6203365;23;20089;-82
2023/06/02 10:16:57;;;;;;;24.93;23.37;;;;;;;;;;6203451;23;20023;-79
2023/06/02 10:19:26;;;;;;;25.70;24.07;;;;;;;;;;6231522;23;20016;-79
2023/06/02 10:22:11;;;;;;;32.57;30.47;;;;;;;;;;6201792;23;20411;-85
2023/06/02 10:24:50;;;;;;;24.87;23.37;;;;;;;;;;6203414;23;20320;-82
2023/06/02 10:27:26;;;;;;;29.03;27.17;;;;;;;;;;6202792;23;20030;-83
2023/06/02 10:29:56;;;;;;;25.53;23.93;;;;;;;;;;6203367;23;20069;-82
2023/06/02 10:32:23;;;;;;;25.97;24.40;;;;;;;;;;6230543;23;20016;-81
2023/06/02 10:34:53;;;;;;;27.33;25.63;;;;;;;;;;6202633;23;20086;-81
2023/06/02 10:37:20;;;;;;;24.93;23.43;;;;;;;;;;6203101;23;20481;-82
2023/06/02 10:39:46;;;;;;;26.17;24.50;;;;;;;;;;6229864;23;20024;-80
2023/06/02 10:42:13;;;;;;;24.10;22.60;;;;;;;;;;6203237;23;20087;-80
2023/06/02 10:44:39;;;;;;;25.17;23.57;;;;;;;;;;6202591;23;20881;-82
2023/06/02 10:47:17;;;;;;;27.37;25.63;;;;;;;;;;6203667;23;20032;-80
2023/06/02 10:50:00;;;;;;;26.37;24.73;;;;;;;;;;6203248;23;20016;-80
2023/06/02 10:52:27;;;;;;;29.50;27.65;;;;;;;;;;6202130;23;20024;-81
2023/06/02 10:55:08;;;;;;;27.77;25.97;;;;;;;;;;6178006;23;20056;-81
2023/06/02 10:57:49;;;;;;;23.83;22.37;;;;;;;;;;6230633;23;20051;-80
2023/06/02 11:03:00;;;;;;;25.40;23.80;;;;;;;;;;6203234;23;20020;-80
2023/06/02 11:05:27;;;;;;;26.10;24.43;;;;;;;;;;6203098;23;20024;-80
2023/06/02 11:08:12;;;;;;;25.30;23.73;;;;;;;;;;6203251;23;20024;-80
2023/06/02 11:10:46;;;;;;;25.23;23.67;;;;;;;;;;6202876;23;20020;-82
2023/06/02 11:13:13;;;;;;;27.38;25.67;;;;;;;;;;6229626;23;20023;-80
2023/06/02 11:15:39;;;;;;;26.40;24.80;;;;;;;;;;6202091;23;20027;-82
2023/06/02 11:18:33;;;;;;;27.03;25.33;;;;;;;;;;6203066;23;20079;-82
2023/06/02 11:21:03;;;;;;;27.05;25.40;;;;;;;;;;6203653;23;20091;-82
2023/06/02 11:23:29;;;;;;;29.83;27.97;;;;;;;;;;6228667;23;20368;-80
2023/06/02 11:26:01;;;;;;;26.40;24.80;;;;;;;;;;6229843;23;20016;-83
2023/06/02 11:28:28;;;;;;;27.50;25.80;;;;;;;;;;6178156;23;20520;-82
2023/06/02 11:31:07;;;;;;;25.97;24.40;;;;;;;;;;6204281;23;20024;-82
2023/06/02 11:33:34;;;;;;;28.17;26.47;;;;;;;;;;6204731;23;20138;-82
2023/06/02 11:36:01;;;;;;;27.80;26.07;;;;;;;;;;6231574;23;20031;-84
2023/06/02 11:38:32;;;;;;;28.90;27.10;;;;;;;;;;6204391;23;20301;-85
2023/06/02 11:41:10;;;;;;;27.23;25.63;;;;;;;;;;6232580;23;20020;-85
2023/06/02 11:43:36;;;;;;;27.03;25.43;;;;;;;;;;6204834;23;20012;-83
2023/06/02 11:46:07;;;;;;;25.87;24.37;;;;;;;;;;6204679;23;20027;-84
2023/06/02 11:48:36;;;;;;;31.13;29.23;;;;;;;;;;6204484;23;20031;-84
2023/06/02 11:51:02;;;;;;;27.57;25.97;;;;;;;;;;6180091;23;20022;-82
2023/06/02 11:53:28;;;;;;;26.00;24.50;;;;;;;;;;6205179;23;20031;-84
2023/06/02 11:55:54;;;;;;;29.87;28.07;;;;;;;;;;6204379;23;20023;-83
2023/06/02 11:58:22;;;;;;;27.70;26.10;;;;;;;;;;6205174;23;20016;-83
2023/06/02 12:00:49;;;;;;;27.13;25.53;;;;;;;;;;6179372;23;20083;-82
2023/06/02 12:03:15;;;;;;;26.77;25.17;;;;;;;;;;6204787;23;20483;-82
2023/06/02 12:05:43;;;;;;;29.30;27.50;;;;;;;;;;6203381;23;20024;-83
2023/06/02 12:08:20;;;;;;;27.20;25.60;;;;;;;;;;6231031;23;20020;-84
2023/06/02 12:10:46;;;;;;;27.37;25.73;;;;;;;;;;6230558;23;20024;-82
2023/06/02 12:13:29;;;;;;;25.97;24.47;;;;;;;;;;6179443;23;20016;-81
2023/06/02 12:15:55;;;;;;;27.23;25.73;;;;;;;;;;6203275;23;20027;-81
2023/06/02 12:18:28;;;;;;;25.00;23.60;;;;;;;;;;6231173;23;20012;-80
2023/06/02 12:20:55;;;;;;;27.83;26.33;;;;;;;;;;6230964;23;20109;-80
2023/06/02 12:23:21;;;;;;;23.63;22.33;;;;;;;;;;6230657;23;20012;-82
2023/06/02 12:25:57;;;;;;;24.97;23.57;;;;;;;;;;6231340;23;20024;-81
2023/06/02 12:28:23;;;;;;;25.67;24.23;;;;;;;;;;6203746;23;20020;-82
2023/06/02 12:30:49;;;;;;;24.90;23.50;;;;;;;;;;6179390;23;20082;-82
2023/06/02 12:33:15;;;;;;;24.17;22.83;;;;;;;;;;6231432;23;20514;-82
2023/06/02 12:35:42;;;;;;;22.00;20.77;;;;;;;;;;6231194;23;20012;-82
2023/06/02 12:38:09;;;;;;;19.60;18.50;;;;;;;;;;6203899;23;20459;-81
2023/06/02 12:40:36;;;;;;;20.63;19.43;;;;;;;;;;6203395;23;20111;-81
2023/06/02 12:43:02;;;;;;;19.60;18.50;;;;;;;;;;6204244;23;20456;-82
2023/06/02 12:45:28;;;;;;;18.10;17.10;;;;;;;;;;6204154;23;20020;-81
2023/06/02 12:47:54;;;;;;;19.17;18.07;;;;;;;;;;6203629;23;20024;-82
2023/06/02 12:50:21;;;;;;;16.47;15.57;;;;;;;;;;6204574;23;20027;-82
2023/06/02 12:52:48;;;;;;;16.40;15.50;;;;;;;;;;6231382;23;20020;-82
2023/06/02 12:55:15;;;;;;;18.13;17.10;;;;;;;;;;6201289;23;20240;-80
2023/06/02 12:57:41;;;;;;;13.37;12.57;;;;;;;;;;6204702;23;20459;-82
2023/06/02 13:00:10;;;;;;;15.10;14.20;;;;;;;;;;6204138;23;20515;-83
2023/06/02 13:02:36;;;;;;;15.87;14.90;;;;;;;;;;6203761;23;20031;-83
2023/06/02 13:05:02;;;;;;;16.13;15.23;;;;;;;;;;6204568;23;20023;-83
2023/06/02 13:07:29;;;;;;;14.33;13.47;;;;;;;;;;6205416;23;20198;-83
2023/06/02 13:09:56;;;;;;;16.03;15.03;;;;;;;;;;6203683;23;20088;-83
2023/06/02 13:12:22;;;;;;;15.17;14.27;;;;;;;;;;6203553;23;20023;-83
2023/06/02 13:14:48;;;;;;;13.40;12.57;;;;;;;;;;6204659;23;20024;-82
2023/06/02 13:17:14;;;;;;;14.80;13.93;;;;;;;;;;6231402;23;20020;-82
2023/06/02 13:19:42;;;;;;;15.53;14.63;;;;;;;;;;6240489;23;20146;-83
2023/06/02 13:22:08;;;;;;;15.97;15.07;;;;;;;;;;6210450;23;20020;-81
2023/06/02 13:24:34;;;;;;;14.47;13.67;;;;;;;;;;6217752;23;20514;-83
2023/06/02 13:27:00;;;;;;;13.80;13.00;;;;;;;;;;6231366;23;20040;-83
2023/06/02 13:29:26;;;;;;;14.17;13.37;;;;;;;;;;6204798;23;20071;-83
2023/06/02 13:31:52;;;;;;;15.47;14.57;;;;;;;;;;6231599;23;20012;-79
2023/06/02 13:34:18;;;;;;;14.10;13.30;;;;;;;;;;6204035;23;20047;-81
2023/06/02 13:36:46;;;;;;;14.37;13.57;;;;;;;;;;6178305;23;20028;-83
2023/06/02 13:39:12;;;;;;;13.00;12.20;;;;;;;;;;6179263;23;20127;-82
2023/06/02 13:41:38;;;;;;;13.20;12.40;;;;;;;;;;6231631;23;20012;-81
2023/06/02 13:44:05;;;;;;;13.63;12.83;;;;;;;;;;6203861;23;20024;-81
2023/06/02 13:46:31;;;;;;;13.67;12.87;;;;;;;;;;6231238;23;20024;-82
2023/06/02 13:48:57;;;;;;;14.10;13.30;;;;;;;;;;6205957;23;20023;-82
2023/06/02 13:51:23;;;;;;;15.17;14.27;;;;;;;;;;6203901;23;20051;-82
2023/06/02 13:53:49;;;;;;;13.33;12.53;;;;;;;;;;6231022;23;20020;-82
2023/06/02 13:56:15;;;;;;;12.17;11.40;;;;;;;;;;6203724;23;20016;-82
2023/06/02 13:58:41;;;;;;;12.63;11.83;;;;;;;;;;6178309;23;20142;-82
2023/06/02 14:01:07;;;;;;;12.17;11.47;;;;;;;;;;6204134;23;20034;-81
2023/06/02 14:03:33;;;;;;;12.10;11.37;;;;;;;;;;6203392;23;20031;-81
2023/06/02 14:06:00;;;;;;;12.60;11.80;;;;;;;;;;6202613;23;20023;-81
2023/06/02 14:08:26;;;;;;;11.97;11.23;;;;;;;;;;6230385;23;20019;-83
2023/06/02 14:10:52;;;;;;;13.33;12.50;;;;;;;;;;6204098;23;20047;-82
2023/06/02 14:13:18;;;;;;;11.63;10.93;;;;;;;;;;6202722;23;20016;-82
2023/06/02 14:15:44;;;;;;;11.93;11.20;;;;;;;;;;6203628;23;20460;-81
2023/06/02 14:18:10;;;;;;;10.13;9.53;;;;;;;;;;6203218;23;20111;-85
2023/06/02 14:20:36;;;;;;;13.20;12.40;;;;;;;;;;6203804;23;20016;-82
2023/06/02 14:23:03;;;;;;;11.43;10.73;;;;;;;;;;6202825;23;20019;-81
2023/06/02 14:25:30;;;;;;;10.80;10.10;;;;;;;;;;6178219;23;20460;-82
2023/06/02 14:27:56;;;;;;;11.97;11.20;;;;;;;;;;6229479;23;20877;-83
2023/06/02 14:30:22;;;;;;;10.83;10.13;;;;;;;;;;6203390;23;20020;-81
2023/06/02 14:32:48;;;;;;;11.97;11.17;;;;;;;;;;6204011;23;20027;-81
2023/06/02 14:35:14;;;;;;;12.63;11.83;;;;;;;;;;6207271;23;20055;-83
2023/06/02 14:37:40;;;;;;;10.93;10.23;;;;;;;;;;6206663;23;20024;-83
2023/06/02 14:40:07;;;;;;;11.47;10.77;;;;;;;;;;6212786;23;20087;-86
2023/06/02 14:42:33;;;;;;;11.17;10.40;;;;;;;;;;6209516;23;20020;-84
2023/06/02 14:44:59;;;;;;;11.80;11.00;;;;;;;;;;6210408;23;20016;-83
2023/06/02 14:47:31;;;;;;;10.57;9.87;;;;;;;;;;6209308;23;20024;-86
2023/06/02 14:49:57;;;;;;;13.47;12.57;;;;;;;;;;6210396;23;20172;-82
2023/06/02 14:52:23;;;;;;;9.77;9.10;;;;;;;;;;6206000;23;20020;-85
2023/06/02 14:54:49;;;;;;;10.03;9.33;;;;;;;;;;6205241;23;20020;-85